This is the latest recevied weather packets stored in our database for station/object N1SU-13. If no packets are shown the sender has not sent any weather packets the latest 10 day(s).
| Time | Temp. | Humidity | Pressure | Rain* | Wind** | Luminosity | Snow |
|---|---|---|---|---|---|---|---|
| 1777781409 | 19.44° C | 55% | 1012.5 hPa | - | - | - | - |
| 1777780746 | 19.44° C | 54% | 1012.3 hPa | - | - | - | - |
| 1777780048 | 20° C | 54% | 1012.1 hPa | - | - | - | - |
| 1777779398 | 20.56° C | 53% | 1011.9 hPa | - | - | - | - |
| 1777778788 | 21.11° C | 50% | 1011.8 hPa | - | - | - | - |
| 1777778536 | 21.11° C | 51% | 1011.8 hPa | - | - | - | - |
| 1777778186 | 21.67° C | 50% | 1011.7 hPa | - | - | - | - |
| 1777777929 | 21.67° C | 49% | 1011.6 hPa | - | - | - | - |
| 1777777494 | 22.22° C | 49% | 1011.5 hPa | - | - | - | - |
| 1777777330 | 22.78° C | 48% | 1011.4 hPa | - | - | - | - |
| 1777776914 | 23.89° C | 46% | 1011.1 hPa | - | - | - | - |
| 1777776738 | 24.44° C | 46% | 1011 hPa | - | - | - | - |
| 1777776253 | 25.56° C | 45% | 1010.9 hPa | - | - | - | - |
| 1777776158 | 25.56° C | 46% | 1010.8 hPa | - | - | - | - |
| 1777775679 | 26.67° C | 43% | 1010.5 hPa | - | - | - | - |
| 1777775634 | 26.67° C | 42% | 1010.6 hPa | - | - | - | - |
| 1777775021 | 26.67° C | 42% | 1010.5 hPa | - | - | - | - |
| 1777774927 | 26.67° C | 42% | 1010.5 hPa | - | - | - | - |
| 1777774852 | 26.67° C | 42% | 1010.5 hPa | - | - | - | - |
| 1777774776 | 26.67° C | 41% | 1010.5 hPa | - | - | - | - |
| 1777774712 | 26.67° C | 41% | 1010.6 hPa | - | - | - | - |
| 1777774640 | 26.67° C | 41% | 1010.5 hPa | - | - | - | - |
| 1777774573 | 26.67° C | 41% | 1010.5 hPa | - | - | - | - |
| 1777774503 | 26.67° C | 41% | 1010.5 hPa | - | - | - | - |
| 1777774430 | 26.67° C | 42% | 1010.4 hPa | - | - | - | - |
* Rain since midnight (hover to see other rain measurements)
** Current wind speed in m/s (hover to see current wind gust speed)